sensor_id;sensor_type;location;lat;lon;timestamp;P1;durP1;ratioP1;P2;durP2;ratioP2
71083;SDS011;58741;52.672;13.548;2023-08-07T00:00:27;0.43;;;0.40;;
71083;SDS011;58741;52.672;13.548;2023-08-07T00:02:52;1.00;;;0.80;;
71083;SDS011;58741;52.672;13.548;2023-08-07T00:05:18;0.45;;;0.45;;
71083;SDS011;58741;52.672;13.548;2023-08-07T00:07:43;0.40;;;0.40;;
71083;SDS011;58741;52.672;13.548;2023-08-07T00:10:09;0.68;;;0.47;;
71083;SDS011;58741;52.672;13.548;2023-08-07T00:12:35;0.57;;;0.40;;
71083;SDS011;58741;52.672;13.548;2023-08-07T00:15:01;3.45;;;0.85;;
71083;SDS011;58741;52.672;13.548;2023-08-07T00:17:28;0.75;;;0.50;;
71083;SDS011;58741;52.672;13.548;2023-08-07T00:19:54;2.17;;;0.73;;
71083;SDS011;58741;52.672;13.548;2023-08-07T00:22:19;0.82;;;0.65;;
71083;SDS011;58741;52.672;13.548;2023-08-07T00:24:45;1.70;;;0.75;;
71083;SDS011;58741;52.672;13.548;2023-08-07T00:27:11;0.80;;;0.50;;
71083;SDS011;58741;52.672;13.548;2023-08-07T00:29:37;0.50;;;0.50;;
71083;SDS011;58741;52.672;13.548;2023-08-07T00:32:04;0.40;;;0.40;;
71083;SDS011;58741;52.672;13.548;2023-08-07T00:34:30;0.55;;;0.40;;
71083;SDS011;58741;52.672;13.548;2023-08-07T00:36:56;0.65;;;0.52;;
71083;SDS011;58741;52.672;13.548;2023-08-07T00:39:21;0.85;;;0.52;;
71083;SDS011;58741;52.672;13.548;2023-08-07T00:41:47;0.70;;;0.40;;
71083;SDS011;58741;52.672;13.548;2023-08-07T00:44:13;1.45;;;0.63;;
71083;SDS011;58741;52.672;13.548;2023-08-07T00:46:39;1.00;;;0.63;;
71083;SDS011;58741;52.672;13.548;2023-08-07T00:49:05;0.50;;;0.50;;
71083;SDS011;58741;52.672;13.548;2023-08-07T00:51:32;0.60;;;0.50;;
71083;SDS011;58741;52.672;13.548;2023-08-07T00:53:58;0.70;;;0.70;;
71083;SDS011;58741;52.672;13.548;2023-08-07T00:56:26;1.52;;;0.90;;
71083;SDS011;58741;52.672;13.548;2023-08-07T00:58:53;1.27;;;0.70;;
71083;SDS011;58741;52.672;13.548;2023-08-07T01:01:19;0.40;;;0.40;;
71083;SDS011;58741;52.672;13.548;2023-08-07T01:03:45;1.15;;;0.50;;
71083;SDS011;58741;52.672;13.548;2023-08-07T01:06:10;0.90;;;0.63;;
71083;SDS011;58741;52.672;13.548;2023-08-07T01:08:36;0.63;;;0.55;;
71083;SDS011;58741;52.672;13.548;2023-08-07T01:11:07;0.63;;;0.52;;
71083;SDS011;58741;52.672;13.548;2023-08-07T01:14:02;1.42;;;0.50;;
71083;SDS011;58741;52.672;13.548;2023-08-07T01:16:57;1.00;;;0.65;;
71083;SDS011;58741;52.672;13.548;2023-08-07T01:19:28;0.93;;;0.50;;
71083;SDS011;58741;52.672;13.548;2023-08-07T01:22:04;0.30;;;0.30;;
71083;SDS011;58741;52.672;13.548;2023-08-07T01:24:33;0.57;;;0.43;;
71083;SDS011;58741;52.672;13.548;2023-08-07T01:32:24;0.52;;;0.50;;
71083;SDS011;58741;52.672;13.548;2023-08-07T01:35:03;0.70;;;0.70;;
71083;SDS011;58741;52.672;13.548;2023-08-07T01:37:33;2.50;;;0.55;;
71083;SDS011;58741;52.672;13.548;2023-08-07T01:40:01;0.50;;;0.50;;
71083;SDS011;58741;52.672;13.548;2023-08-07T01:42:29;0.70;;;0.70;;
71083;SDS011;58741;52.672;13.548;2023-08-07T01:44:55;3.55;;;0.65;;
71083;SDS011;58741;52.672;13.548;2023-08-07T01:47:20;1.00;;;0.80;;
71083;SDS011;58741;52.672;13.548;2023-08-07T01:49:46;2.33;;;0.73;;
71083;SDS011;58741;52.672;13.548;2023-08-07T01:52:11;1.35;;;1.17;;
71083;SDS011;58741;52.672;13.548;2023-08-07T01:54:37;1.35;;;1.02;;
71083;SDS011;58741;52.672;13.548;2023-08-07T01:57:03;0.95;;;0.77;;
71083;SDS011;58741;52.672;13.548;2023-08-07T01:59:29;1.00;;;0.65;;
71083;SDS011;58741;52.672;13.548;2023-08-07T02:01:54;0.63;;;0.50;;
71083;SDS011;58741;52.672;13.548;2023-08-07T02:04:20;1.00;;;0.68;;
71083;SDS011;58741;52.672;13.548;2023-08-07T02:06:46;1.27;;;0.73;;
71083;SDS011;58741;52.672;13.548;2023-08-07T02:09:11;1.13;;;0.85;;
71083;SDS011;58741;52.672;13.548;2023-08-07T02:11:37;2.10;;;1.17;;
71083;SDS011;58741;52.672;13.548;2023-08-07T02:14:02;0.90;;;0.70;;
71083;SDS011;58741;52.672;13.548;2023-08-07T02:16:28;3.35;;;1.20;;
71083;SDS011;58741;52.672;13.548;2023-08-07T02:18:53;1.17;;;0.75;;
71083;SDS011;58741;52.672;13.548;2023-08-07T02:21:19;1.17;;;1.00;;
71083;SDS011;58741;52.672;13.548;2023-08-07T02:23:45;1.05;;;0.95;;
71083;SDS011;58741;52.672;13.548;2023-08-07T02:26:10;1.77;;;1.00;;
71083;SDS011;58741;52.672;13.548;2023-08-07T02:28:36;1.38;;;0.95;;
71083;SDS011;58741;52.672;13.548;2023-08-07T02:31:01;0.80;;;0.77;;
71083;SDS011;58741;52.672;13.548;2023-08-07T02:33:27;2.42;;;1.17;;
71083;SDS011;58741;52.672;13.548;2023-08-07T02:35:55;1.20;;;0.70;;
71083;SDS011;58741;52.672;13.548;2023-08-07T02:38:21;0.98;;;0.75;;
71083;SDS011;58741;52.672;13.548;2023-08-07T02:40:46;2.45;;;0.80;;
71083;SDS011;58741;52.672;13.548;2023-08-07T02:43:12;2.35;;;1.20;;
71083;SDS011;58741;52.672;13.548;2023-08-07T02:45:37;0.80;;;0.77;;
71083;SDS011;58741;52.672;13.548;2023-08-07T02:48:03;1.02;;;0.93;;
71083;SDS011;58741;52.672;13.548;2023-08-07T02:50:29;0.95;;;0.60;;
71083;SDS011;58741;52.672;13.548;2023-08-07T02:52:57;1.88;;;0.90;;
71083;SDS011;58741;52.672;13.548;2023-08-07T02:55:23;1.45;;;0.90;;
71083;SDS011;58741;52.672;13.548;2023-08-07T02:57:49;0.80;;;0.80;;
71083;SDS011;58741;52.672;13.548;2023-08-07T03:00:15;0.73;;;0.45;;
71083;SDS011;58741;52.672;13.548;2023-08-07T03:02:40;1.50;;;1.02;;
71083;SDS011;58741;52.672;13.548;2023-08-07T03:05:06;1.60;;;0.75;;
71083;SDS011;58741;52.672;13.548;2023-08-07T03:07:32;0.85;;;0.75;;
71083;SDS011;58741;52.672;13.548;2023-08-07T03:09:57;0.70;;;0.70;;
71083;SDS011;58741;52.672;13.548;2023-08-07T03:12:23;2.13;;;1.08;;
71083;SDS011;58741;52.672;13.548;2023-08-07T03:14:49;1.75;;;1.10;;
71083;SDS011;58741;52.672;13.548;2023-08-07T03:17:14;1.38;;;0.80;;
71083;SDS011;58741;52.672;13.548;2023-08-07T03:19:42;0.60;;;0.60;;
71083;SDS011;58741;52.672;13.548;2023-08-07T03:22:08;1.00;;;0.88;;
71083;SDS011;58741;52.672;13.548;2023-08-07T03:24:34;1.45;;;0.98;;
71083;SDS011;58741;52.672;13.548;2023-08-07T03:27:00;1.48;;;1.27;;
71083;SDS011;58741;52.672;13.548;2023-08-07T03:29:26;1.65;;;1.05;;
71083;SDS011;58741;52.672;13.548;2023-08-07T03:31:51;3.55;;;1.15;;
71083;SDS011;58741;52.672;13.548;2023-08-07T03:34:17;5.00;;;1.58;;
71083;SDS011;58741;52.672;13.548;2023-08-07T03:36:43;1.73;;;1.30;;
71083;SDS011;58741;52.672;13.548;2023-08-07T03:39:09;1.98;;;1.25;;
71083;SDS011;58741;52.672;13.548;2023-08-07T03:41:37;1.20;;;0.90;;
71083;SDS011;58741;52.672;13.548;2023-08-07T03:44:03;1.73;;;1.00;;
71083;SDS011;58741;52.672;13.548;2023-08-07T03:46:29;3.50;;;1.40;;
71083;SDS011;58741;52.672;13.548;2023-08-07T03:48:55;2.30;;;1.17;;
71083;SDS011;58741;52.672;13.548;2023-08-07T03:51:22;1.83;;;1.35;;
71083;SDS011;58741;52.672;13.548;2023-08-07T03:53:50;1.38;;;1.10;;
71083;SDS011;58741;52.672;13.548;2023-08-07T03:56:16;5.63;;;1.58;;
71083;SDS011;58741;52.672;13.548;2023-08-07T03:58:41;1.98;;;1.30;;
71083;SDS011;58741;52.672;13.548;2023-08-07T04:01:07;1.38;;;1.27;;
71083;SDS011;58741;52.672;13.548;2023-08-07T04:03:33;1.55;;;1.17;;
71083;SDS011;58741;52.672;13.548;2023-08-07T04:05:59;1.67;;;1.17;;
71083;SDS011;58741;52.672;13.548;2023-08-07T04:08:30;2.97;;;1.40;;
71083;SDS011;58741;52.672;13.548;2023-08-07T04:10:59;2.00;;;1.10;;
71083;SDS011;58741;52.672;13.548;2023-08-07T04:13:28;6.45;;;1.38;;
71083;SDS011;58741;52.672;13.548;2023-08-07T04:15:54;1.80;;;1.08;;
71083;SDS011;58741;52.672;13.548;2023-08-07T04:18:20;1.25;;;0.85;;
71083;SDS011;58741;52.672;13.548;2023-08-07T04:20:52;1.50;;;1.30;;
71083;SDS011;58741;52.672;13.548;2023-08-07T04:23:19;1.58;;;1.20;;
71083;SDS011;58741;52.672;13.548;2023-08-07T04:25:45;3.20;;;1.25;;
71083;SDS011;58741;52.672;13.548;2023-08-07T04:28:12;1.30;;;1.17;;
71083;SDS011;58741;52.672;13.548;2023-08-07T04:30:38;1.05;;;0.88;;
71083;SDS011;58741;52.672;13.548;2023-08-07T04:33:03;1.00;;;0.90;;
71083;SDS011;58741;52.672;13.548;2023-08-07T04:35:30;1.95;;;1.42;;
71083;SDS011;58741;52.672;13.548;2023-08-07T04:37:56;2.95;;;1.65;;
71083;SDS011;58741;52.672;13.548;2023-08-07T04:40:21;3.88;;;1.48;;
71083;SDS011;58741;52.672;13.548;2023-08-07T04:42:48;2.25;;;1.20;;
71083;SDS011;58741;52.672;13.548;2023-08-07T04:45:14;2.50;;;1.38;;
71083;SDS011;58741;52.672;13.548;2023-08-07T04:47:40;2.08;;;1.25;;
71083;SDS011;58741;52.672;13.548;2023-08-07T04:50:06;2.33;;;1.40;;
71083;SDS011;58741;52.672;13.548;2023-08-07T04:52:33;1.63;;;1.10;;
71083;SDS011;58741;52.672;13.548;2023-08-07T04:54:59;2.03;;;1.40;;
71083;SDS011;58741;52.672;13.548;2023-08-07T04:57:25;1.77;;;1.00;;
71083;SDS011;58741;52.672;13.548;2023-08-07T04:59:50;1.40;;;1.15;;
71083;SDS011;58741;52.672;13.548;2023-08-07T05:02:16;1.27;;;1.17;;
71083;SDS011;58741;52.672;13.548;2023-08-07T05:04:42;4.72;;;1.50;;
71083;SDS011;58741;52.672;13.548;2023-08-07T05:07:08;1.35;;;1.10;;
71083;SDS011;58741;52.672;13.548;2023-08-07T05:09:35;1.83;;;1.38;;
71083;SDS011;58741;52.672;13.548;2023-08-07T05:12:00;2.50;;;1.30;;
71083;SDS011;58741;52.672;13.548;2023-08-07T05:14:26;1.50;;;1.20;;
71083;SDS011;58741;52.672;13.548;2023-08-07T05:16:54;1.48;;;1.08;;
71083;SDS011;58741;52.672;13.548;2023-08-07T05:19:19;1.70;;;1.13;;
71083;SDS011;58741;52.672;13.548;2023-08-07T05:21:45;1.65;;;0.98;;
71083;SDS011;58741;52.672;13.548;2023-08-07T05:24:15;1.42;;;1.10;;
71083;SDS011;58741;52.672;13.548;2023-08-07T05:26:41;2.17;;;1.40;;
71083;SDS011;58741;52.672;13.548;2023-08-07T05:29:06;2.15;;;1.35;;
71083;SDS011;58741;52.672;13.548;2023-08-07T05:31:32;1.52;;;0.95;;
71083;SDS011;58741;52.672;13.548;2023-08-07T05:33:58;1.45;;;1.23;;
71083;SDS011;58741;52.672;13.548;2023-08-07T05:36:24;1.42;;;1.10;;
71083;SDS011;58741;52.672;13.548;2023-08-07T05:38:49;0.90;;;0.88;;
71083;SDS011;58741;52.672;13.548;2023-08-07T05:41:15;1.88;;;1.13;;
71083;SDS011;58741;52.672;13.548;2023-08-07T05:43:41;3.60;;;1.30;;
71083;SDS011;58741;52.672;13.548;2023-08-07T05:46:07;1.45;;;0.95;;
71083;SDS011;58741;52.672;13.548;2023-08-07T05:48:33;1.05;;;0.95;;
71083;SDS011;58741;52.672;13.548;2023-08-07T05:50:58;1.45;;;1.10;;
71083;SDS011;58741;52.672;13.548;2023-08-07T05:53:24;2.10;;;1.23;;
71083;SDS011;58741;52.672;13.548;2023-08-07T05:55:49;1.00;;;0.80;;
71083;SDS011;58741;52.672;13.548;2023-08-07T05:58:15;1.58;;;1.17;;
71083;SDS011;58741;52.672;13.548;2023-08-07T06:00:40;1.95;;;1.35;;
71083;SDS011;58741;52.672;13.548;2023-08-07T06:03:06;1.27;;;1.15;;
71083;SDS011;58741;52.672;13.548;2023-08-07T06:05:32;3.40;;;1.75;;
71083;SDS011;58741;52.672;13.548;2023-08-07T06:07:58;2.05;;;1.27;;
71083;SDS011;58741;52.672;13.548;2023-08-07T06:10:24;1.40;;;1.00;;
71083;SDS011;58741;52.672;13.548;2023-08-07T06:12:49;2.58;;;1.00;;
71083;SDS011;58741;52.672;13.548;2023-08-07T06:15:15;2.80;;;1.17;;
71083;SDS011;58741;52.672;13.548;2023-08-07T06:17:41;1.48;;;1.20;;
71083;SDS011;58741;52.672;13.548;2023-08-07T06:20:07;1.35;;;0.93;;
71083;SDS011;58741;52.672;13.548;2023-08-07T06:22:34;5.03;;;1.05;;
71083;SDS011;58741;52.672;13.548;2023-08-07T06:25:00;1.30;;;0.77;;
71083;SDS011;58741;52.672;13.548;2023-08-07T06:27:26;1.63;;;1.15;;
71083;SDS011;58741;52.672;13.548;2023-08-07T06:29:51;1.15;;;0.80;;
71083;SDS011;58741;52.672;13.548;2023-08-07T06:32:17;0.88;;;0.80;;
71083;SDS011;58741;52.672;13.548;2023-08-07T06:34:43;1.00;;;0.90;;
71083;SDS011;58741;52.672;13.548;2023-08-07T06:37:09;1.92;;;1.10;;
71083;SDS011;58741;52.672;13.548;2023-08-07T06:39:34;0.88;;;0.80;;
71083;SDS011;58741;52.672;13.548;2023-08-07T06:42:00;4.55;;;1.27;;
71083;SDS011;58741;52.672;13.548;2023-08-07T06:44:32;2.15;;;1.25;;
71083;SDS011;58741;52.672;13.548;2023-08-07T06:46:57;4.50;;;1.25;;
71083;SDS011;58741;52.672;13.548;2023-08-07T06:49:23;2.88;;;1.00;;
71083;SDS011;58741;52.672;13.548;2023-08-07T06:51:48;1.10;;;0.98;;
71083;SDS011;58741;52.672;13.548;2023-08-07T06:54:14;1.25;;;1.13;;
71083;SDS011;58741;52.672;13.548;2023-08-07T06:56:39;1.55;;;1.10;;
71083;SDS011;58741;52.672;13.548;2023-08-07T06:59:07;1.27;;;0.73;;
71083;SDS011;58741;52.672;13.548;2023-08-07T07:01:33;2.10;;;1.33;;
71083;SDS011;58741;52.672;13.548;2023-08-07T07:03:58;2.00;;;1.02;;
71083;SDS011;58741;52.672;13.548;2023-08-07T07:06:24;1.20;;;1.10;;
71083;SDS011;58741;52.672;13.548;2023-08-07T07:08:51;0.68;;;0.57;;
71083;SDS011;58741;52.672;13.548;2023-08-07T07:11:19;0.50;;;0.50;;
71083;SDS011;58741;52.672;13.548;2023-08-07T07:13:46;0.70;;;0.68;;
71083;SDS011;58741;52.672;13.548;2023-08-07T07:16:11;0.80;;;0.80;;
71083;SDS011;58741;52.672;13.548;2023-08-07T07:18:38;3.28;;;0.93;;
71083;SDS011;58741;52.672;13.548;2023-08-07T07:21:04;1.17;;;0.82;;
71083;SDS011;58741;52.672;13.548;2023-08-07T07:23:29;1.33;;;0.90;;
71083;SDS011;58741;52.672;13.548;2023-08-07T07:25:55;0.82;;;0.65;;
71083;SDS011;58741;52.672;13.548;2023-08-07T07:28:22;1.65;;;0.90;;
71083;SDS011;58741;52.672;13.548;2023-08-07T07:30:49;0.77;;;0.77;;
71083;SDS011;58741;52.672;13.548;2023-08-07T07:33:15;0.68;;;0.63;;
71083;SDS011;58741;52.672;13.548;2023-08-07T07:35:41;1.02;;;0.70;;
71083;SDS011;58741;52.672;13.548;2023-08-07T07:38:07;1.02;;;0.90;;
71083;SDS011;58741;52.672;13.548;2023-08-07T07:40:36;2.30;;;0.98;;
71083;SDS011;58741;52.672;13.548;2023-08-07T07:43:02;0.55;;;0.55;;
71083;SDS011;58741;52.672;13.548;2023-08-07T07:45:28;1.00;;;0.73;;
71083;SDS011;58741;52.672;13.548;2023-08-07T07:47:54;0.70;;;0.57;;
71083;SDS011;58741;52.672;13.548;2023-08-07T07:50:20;0.82;;;0.77;;
71083;SDS011;58741;52.672;13.548;2023-08-07T07:52:46;0.80;;;0.80;;
71083;SDS011;58741;52.672;13.548;2023-08-07T07:55:11;1.67;;;0.73;;
71083;SDS011;58741;52.672;13.548;2023-08-07T07:57:38;1.67;;;0.90;;
71083;SDS011;58741;52.672;13.548;2023-08-07T08:00:04;1.05;;;0.70;;
71083;SDS011;58741;52.672;13.548;2023-08-07T08:02:36;0.63;;;0.63;;
71083;SDS011;58741;52.672;13.548;2023-08-07T08:05:02;0.85;;;0.63;;
71083;SDS011;58741;52.672;13.548;2023-08-07T08:07:28;0.50;;;0.50;;
71083;SDS011;58741;52.672;13.548;2023-08-07T08:09:54;1.17;;;0.95;;
71083;SDS011;58741;52.672;13.548;2023-08-07T08:12:21;0.55;;;0.55;;
71083;SDS011;58741;52.672;13.548;2023-08-07T08:14:47;0.60;;;0.60;;
71083;SDS011;58741;52.672;13.548;2023-08-07T08:17:12;0.93;;;0.50;;
71083;SDS011;58741;52.672;13.548;2023-08-07T08:19:38;0.73;;;0.73;;
71083;SDS011;58741;52.672;13.548;2023-08-07T08:22:04;0.80;;;0.60;;
71083;SDS011;58741;52.672;13.548;2023-08-07T08:24:30;0.77;;;0.60;;
71083;SDS011;58741;52.672;13.548;2023-08-07T08:26:56;0.90;;;0.85;;
71083;SDS011;58741;52.672;13.548;2023-08-07T08:29:22;0.73;;;0.60;;
71083;SDS011;58741;52.672;13.548;2023-08-07T08:31:48;0.70;;;0.65;;
71083;SDS011;58741;52.672;13.548;2023-08-07T08:34:13;1.38;;;0.65;;
71083;SDS011;58741;52.672;13.548;2023-08-07T08:36:39;1.80;;;0.73;;
71083;SDS011;58741;52.672;13.548;2023-08-07T08:39:05;1.13;;;0.75;;
71083;SDS011;58741;52.672;13.548;2023-08-07T08:41:30;1.35;;;0.90;;
71083;SDS011;58741;52.672;13.548;2023-08-07T08:43:56;2.78;;;0.80;;
71083;SDS011;58741;52.672;13.548;2023-08-07T08:46:24;1.08;;;0.90;;
71083;SDS011;58741;52.672;13.548;2023-08-07T08:48:54;0.80;;;0.80;;
71083;SDS011;58741;52.672;13.548;2023-08-07T08:51:22;2.45;;;0.68;;
71083;SDS011;58741;52.672;13.548;2023-08-07T08:53:51;1.13;;;0.60;;
71083;SDS011;58741;52.672;13.548;2023-08-07T08:56:18;0.80;;;0.70;;
71083;SDS011;58741;52.672;13.548;2023-08-07T08:58:45;0.95;;;0.63;;
71083;SDS011;58741;52.672;13.548;2023-08-07T09:01:11;0.52;;;0.52;;
71083;SDS011;58741;52.672;13.548;2023-08-07T09:03:37;0.50;;;0.50;;
71083;SDS011;58741;52.672;13.548;2023-08-07T09:06:03;1.05;;;0.70;;
71083;SDS011;58741;52.672;13.548;2023-08-07T09:08:31;1.45;;;0.85;;
71083;SDS011;58741;52.672;13.548;2023-08-07T09:10:59;0.98;;;0.82;;
71083;SDS011;58741;52.672;13.548;2023-08-07T09:13:26;1.20;;;1.02;;
71083;SDS011;58741;52.672;13.548;2023-08-07T09:15:53;1.23;;;0.60;;
71083;SDS011;58741;52.672;13.548;2023-08-07T09:18:19;0.98;;;0.85;;
71083;SDS011;58741;52.672;13.548;2023-08-07T09:20:48;0.80;;;0.70;;
71083;SDS011;58741;52.672;13.548;2023-08-07T09:23:14;1.13;;;0.82;;
71083;SDS011;58741;52.672;13.548;2023-08-07T09:25:41;0.85;;;0.85;;
71083;SDS011;58741;52.672;13.548;2023-08-07T09:28:07;0.90;;;0.70;;
71083;SDS011;58741;52.672;13.548;2023-08-07T09:30:35;2.42;;;1.00;;
71083;SDS011;58741;52.672;13.548;2023-08-07T09:33:04;0.60;;;0.60;;
71083;SDS011;58741;52.672;13.548;2023-08-07T09:35:31;0.73;;;0.70;;
71083;SDS011;58741;52.672;13.548;2023-08-07T09:37:58;0.90;;;0.90;;
71083;SDS011;58741;52.672;13.548;2023-08-07T09:40:23;0.50;;;0.50;;
71083;SDS011;58741;52.672;13.548;2023-08-07T09:42:53;0.93;;;0.75;;
71083;SDS011;58741;52.672;13.548;2023-08-07T09:45:25;1.10;;;0.60;;
71083;SDS011;58741;52.672;13.548;2023-08-07T09:48:01;1.05;;;0.68;;
71083;SDS011;58741;52.672;13.548;2023-08-07T09:50:28;1.70;;;0.60;;
71083;SDS011;58741;52.672;13.548;2023-08-07T09:52:56;1.05;;;0.82;;
71083;SDS011;58741;52.672;13.548;2023-08-07T09:55:23;0.82;;;0.55;;
71083;SDS011;58741;52.672;13.548;2023-08-07T09:57:49;1.25;;;0.98;;
71083;SDS011;58741;52.672;13.548;2023-08-07T10:00:15;6.72;;;0.80;;
71083;SDS011;58741;52.672;13.548;2023-08-07T10:02:44;1.02;;;0.85;;
71083;SDS011;58741;52.672;13.548;2023-08-07T10:05:10;0.45;;;0.45;;
71083;SDS011;58741;52.672;13.548;2023-08-07T10:07:38;1.20;;;0.55;;
71083;SDS011;58741;52.672;13.548;2023-08-07T10:10:04;1.45;;;0.85;;
71083;SDS011;58741;52.672;13.548;2023-08-07T10:12:31;2.42;;;0.85;;
71083;SDS011;58741;52.672;13.548;2023-08-07T10:14:58;1.10;;;0.70;;
71083;SDS011;58741;52.672;13.548;2023-08-07T10:17:25;1.02;;;0.65;;
71083;SDS011;58741;52.672;13.548;2023-08-07T10:19:51;1.42;;;0.52;;
71083;SDS011;58741;52.672;13.548;2023-08-07T10:22:18;1.35;;;0.80;;
71083;SDS011;58741;52.672;13.548;2023-08-07T10:24:44;0.80;;;0.70;;
71083;SDS011;58741;52.672;13.548;2023-08-07T10:27:13;0.80;;;0.80;;
71083;SDS011;58741;52.672;13.548;2023-08-07T10:29:42;0.95;;;0.80;;
71083;SDS011;58741;52.672;13.548;2023-08-07T10:32:10;2.88;;;0.98;;
71083;SDS011;58741;52.672;13.548;2023-08-07T10:34:36;2.22;;;0.90;;
71083;SDS011;58741;52.672;13.548;2023-08-07T10:37:05;0.80;;;0.80;;
71083;SDS011;58741;52.672;13.548;2023-08-07T10:39:31;0.88;;;0.70;;
71083;SDS011;58741;52.672;13.548;2023-08-07T10:41:57;0.60;;;0.60;;
71083;SDS011;58741;52.672;13.548;2023-08-07T10:44:24;3.22;;;0.93;;
71083;SDS011;58741;52.672;13.548;2023-08-07T10:46:52;2.05;;;0.75;;
71083;SDS011;58741;52.672;13.548;2023-08-07T10:49:37;1.40;;;0.82;;
71083;SDS011;58741;52.672;13.548;2023-08-07T10:52:11;1.30;;;0.57;;
71083;SDS011;58741;52.672;13.548;2023-08-07T10:54:40;0.82;;;0.63;;
71083;SDS011;58741;52.672;13.548;2023-08-07T10:57:10;1.08;;;0.75;;
71083;SDS011;58741;52.672;13.548;2023-08-07T10:59:37;0.75;;;0.70;;
71083;SDS011;58741;52.672;13.548;2023-08-07T11:02:03;1.95;;;0.90;;
71083;SDS011;58741;52.672;13.548;2023-08-07T11:04:36;0.65;;;0.60;;
71083;SDS011;58741;52.672;13.548;2023-08-07T11:07:02;0.43;;;0.43;;
71083;SDS011;58741;52.672;13.548;2023-08-07T11:09:27;2.78;;;1.10;;
71083;SDS011;58741;52.672;13.548;2023-08-07T11:11:53;1.58;;;0.75;;
71083;SDS011;58741;52.672;13.548;2023-08-07T11:14:19;0.95;;;0.73;;
71083;SDS011;58741;52.672;13.548;2023-08-07T11:16:45;1.00;;;0.90;;
71083;SDS011;58741;52.672;13.548;2023-08-07T11:19:16;0.85;;;0.85;;
71083;SDS011;58741;52.672;13.548;2023-08-07T11:21:42;0.73;;;0.55;;
71083;SDS011;58741;52.672;13.548;2023-08-07T11:24:08;0.55;;;0.50;;
71083;SDS011;58741;52.672;13.548;2023-08-07T11:26:38;0.95;;;0.80;;
71083;SDS011;58741;52.672;13.548;2023-08-07T11:29:04;0.65;;;0.63;;
71083;SDS011;58741;52.672;13.548;2023-08-07T11:31:30;1.35;;;0.82;;
71083;SDS011;58741;52.672;13.548;2023-08-07T11:33:57;1.80;;;0.77;;
71083;SDS011;58741;52.672;13.548;2023-08-07T11:36:23;0.88;;;0.63;;
71083;SDS011;58741;52.672;13.548;2023-08-07T11:38:49;2.22;;;0.95;;
71083;SDS011;58741;52.672;13.548;2023-08-07T11:41:16;4.68;;;0.77;;
71083;SDS011;58741;52.672;13.548;2023-08-07T11:43:42;0.60;;;0.60;;
71083;SDS011;58741;52.672;13.548;2023-08-07T11:46:09;1.20;;;0.55;;
71083;SDS011;58741;52.672;13.548;2023-08-07T11:48:37;0.57;;;0.57;;
71083;SDS011;58741;52.672;13.548;2023-08-07T11:51:04;0.82;;;0.73;;
71083;SDS011;58741;52.672;13.548;2023-08-07T11:53:31;6.22;;;0.70;;
71083;SDS011;58741;52.672;13.548;2023-08-07T11:55:59;1.83;;;0.70;;
71083;SDS011;58741;52.672;13.548;2023-08-07T11:58:33;0.82;;;0.70;;
71083;SDS011;58741;52.672;13.548;2023-08-07T12:01:20;1.00;;;0.55;;
71083;SDS011;58741;52.672;13.548;2023-08-07T12:03:54;1.00;;;0.68;;
71083;SDS011;58741;52.672;13.548;2023-08-07T12:06:20;1.23;;;0.63;;
71083;SDS011;58741;52.672;13.548;2023-08-07T12:08:48;1.95;;;0.60;;
71083;SDS011;58741;52.672;13.548;2023-08-07T12:11:16;5.05;;;1.17;;
71083;SDS011;58741;52.672;13.548;2023-08-07T12:13:42;3.13;;;0.80;;
71083;SDS011;58741;52.672;13.548;2023-08-07T12:16:10;0.60;;;0.60;;
71083;SDS011;58741;52.672;13.548;2023-08-07T12:18:46;0.73;;;0.55;;
71083;SDS011;58741;52.672;13.548;2023-08-07T12:21:16;1.73;;;0.85;;
71083;SDS011;58741;52.672;13.548;2023-08-07T12:23:48;0.57;;;0.50;;
71083;SDS011;58741;52.672;13.548;2023-08-07T12:26:15;1.00;;;0.65;;
71083;SDS011;58741;52.672;13.548;2023-08-07T12:28:41;2.35;;;0.85;;
71083;SDS011;58741;52.672;13.548;2023-08-07T12:31:07;1.98;;;0.60;;
71083;SDS011;58741;52.672;13.548;2023-08-07T12:33:33;1.00;;;0.70;;
71083;SDS011;58741;52.672;13.548;2023-08-07T12:35:59;0.95;;;0.73;;
71083;SDS011;58741;52.672;13.548;2023-08-07T12:38:25;2.85;;;0.95;;
71083;SDS011;58741;52.672;13.548;2023-08-07T12:40:52;0.75;;;0.55;;
71083;SDS011;58741;52.672;13.548;2023-08-07T12:43:17;0.75;;;0.70;;
71083;SDS011;58741;52.672;13.548;2023-08-07T12:45:43;1.52;;;0.98;;
71083;SDS011;58741;52.672;13.548;2023-08-07T12:48:09;0.85;;;0.70;;
71083;SDS011;58741;52.672;13.548;2023-08-07T12:50:35;1.23;;;0.47;;
71083;SDS011;58741;52.672;13.548;2023-08-07T12:53:01;1.40;;;0.63;;
71083;SDS011;58741;52.672;13.548;2023-08-07T12:55:26;2.00;;;0.50;;
71083;SDS011;58741;52.672;13.548;2023-08-07T12:57:53;4.10;;;0.90;;
71083;SDS011;58741;52.672;13.548;2023-08-07T13:00:19;1.02;;;0.70;;
71083;SDS011;58741;52.672;13.548;2023-08-07T13:02:46;1.85;;;0.95;;
71083;SDS011;58741;52.672;13.548;2023-08-07T13:05:13;2.03;;;0.70;;
71083;SDS011;58741;52.672;13.548;2023-08-07T13:07:40;1.20;;;0.60;;
71083;SDS011;58741;52.672;13.548;2023-08-07T13:10:06;3.42;;;0.60;;
71083;SDS011;58741;52.672;13.548;2023-08-07T13:12:37;2.50;;;1.15;;
71083;SDS011;58741;52.672;13.548;2023-08-07T13:15:04;2.33;;;0.70;;
71083;SDS011;58741;52.672;13.548;2023-08-07T13:17:31;0.70;;;0.70;;
71083;SDS011;58741;52.672;13.548;2023-08-07T13:19:58;4.00;;;0.93;;
71083;SDS011;58741;52.672;13.548;2023-08-07T13:22:24;0.70;;;0.60;;
71083;SDS011;58741;52.672;13.548;2023-08-07T13:24:50;2.05;;;0.60;;
71083;SDS011;58741;52.672;13.548;2023-08-07T13:27:15;1.25;;;0.60;;
71083;SDS011;58741;52.672;13.548;2023-08-07T13:29:41;2.55;;;0.90;;
71083;SDS011;58741;52.672;13.548;2023-08-07T13:32:06;2.70;;;0.85;;
71083;SDS011;58741;52.672;13.548;2023-08-07T13:34:34;0.70;;;0.70;;
71083;SDS011;58741;52.672;13.548;2023-08-07T13:37:01;0.73;;;0.63;;
71083;SDS011;58741;52.672;13.548;2023-08-07T13:39:27;1.38;;;0.80;;
71083;SDS011;58741;52.672;13.548;2023-08-07T13:41:53;1.33;;;1.00;;
71083;SDS011;58741;52.672;13.548;2023-08-07T13:44:19;0.88;;;0.70;;
71083;SDS011;58741;52.672;13.548;2023-08-07T13:46:45;0.73;;;0.70;;
71083;SDS011;58741;52.672;13.548;2023-08-07T13:49:12;4.07;;;1.20;;
71083;SDS011;58741;52.672;13.548;2023-08-07T13:51:38;1.80;;;0.73;;
71083;SDS011;58741;52.672;13.548;2023-08-07T13:54:04;2.03;;;1.13;;
71083;SDS011;58741;52.672;13.548;2023-08-07T13:56:29;0.75;;;0.63;;
71083;SDS011;58741;52.672;13.548;2023-08-07T13:58:55;3.03;;;0.75;;
71083;SDS011;58741;52.672;13.548;2023-08-07T14:01:20;0.98;;;0.70;;
71083;SDS011;58741;52.672;13.548;2023-08-07T14:03:46;1.20;;;0.93;;
71083;SDS011;58741;52.672;13.548;2023-08-07T14:06:12;1.23;;;0.90;;
71083;SDS011;58741;52.672;13.548;2023-08-07T14:08:37;3.05;;;0.70;;
71083;SDS011;58741;52.672;13.548;2023-08-07T14:11:03;1.45;;;0.80;;
71083;SDS011;58741;52.672;13.548;2023-08-07T14:13:29;2.28;;;0.93;;
71083;SDS011;58741;52.672;13.548;2023-08-07T14:15:55;1.40;;;0.93;;
71083;SDS011;58741;52.672;13.548;2023-08-07T14:18:20;0.52;;;0.50;;
71083;SDS011;58741;52.672;13.548;2023-08-07T14:20:46;4.07;;;0.68;;
71083;SDS011;58741;52.672;13.548;2023-08-07T14:23:12;2.15;;;0.98;;
71083;SDS011;58741;52.672;13.548;2023-08-07T14:25:37;3.15;;;0.85;;
71083;SDS011;58741;52.672;13.548;2023-08-07T14:28:03;1.17;;;0.60;;
71083;SDS011;58741;52.672;13.548;2023-08-07T14:30:29;0.70;;;0.70;;
71083;SDS011;58741;52.672;13.548;2023-08-07T14:32:55;1.48;;;1.10;;
71083;SDS011;58741;52.672;13.548;2023-08-07T14:35:20;0.88;;;0.68;;